Time;durP1;ratioP1;P1;durP2;ratioP2;P2;SDS_P1;SDS_P2;PMS_P1;PMS_P2;Temp;Humidity;BMP_temperature;BMP_pressure;BME280_temperature;BME280_humidity;BME280_pressure;Samples;Min_cycle;Max_cycle;Signal;HPM_P1;HPM_P2
2023/06/15 00:01:52;;;;;;;6.80;3.85;;;;;;;15.34;60.04;99635.91;4404450;32;20136;-88
2023/06/15 00:04:17;;;;;;;5.78;3.17;;;;;;;15.54;60.04;99634.84;4406407;32;20109;-88
2023/06/15 00:06:43;;;;;;;4.53;3.00;;;;;;;15.28;60.03;99631.84;4403974;32;20109;-88
2023/06/15 00:09:08;;;;;;;5.20;3.47;;;;;;;15.34;60.03;99634.16;4406409;32;20098;-88
2023/06/15 00:11:34;;;;;;;6.62;3.90;;;;;;;15.23;60.04;99625.16;4400870;32;23491;-87
2023/06/15 00:14:00;;;;;;;7.50;3.65;;;;;;;15.07;60.01;99635.59;4422365;32;20134;-88
2023/06/15 00:16:30;;;;;;;5.78;3.22;;;;;;;15.09;60.03;99631.12;4408771;32;20102;-87
2023/06/15 00:19:01;;;;;;;10.05;3.90;;;;;;;15.10;60.02;99629.34;4406533;32;20101;-87
2023/06/15 00:21:28;;;;;;;5.45;3.50;;;;;;;15.24;60.02;99632.09;4405037;32;20122;-87
2023/06/15 00:23:53;;;;;;;4.68;2.75;;;;;;;15.36;60.03;99637.53;4406383;32;20138;-87
2023/06/15 00:26:19;;;;;;;4.85;3.25;;;;;;;15.39;60.03;99627.84;4404099;32;20125;-87
2023/06/15 00:28:44;;;;;;;5.70;3.45;;;;;;;15.13;60.02;99630.03;4396246;32;20141;-87
2023/06/15 00:31:09;;;;;;;6.37;3.47;;;;;;;15.13;60.02;99627.41;4422280;32;22265;-87
2023/06/15 00:33:35;;;;;;;4.93;3.20;;;;;;;15.16;60.03;99624.66;4381009;32;20160;-88
2023/06/15 00:36:00;;;;;;;4.85;3.25;;;;;;;15.25;60.03;99628.56;4377318;32;20392;-88
2023/06/15 00:38:26;;;;;;;5.62;3.50;;;;;;;15.43;60.04;99627.59;4408793;32;20165;-88
2023/06/15 00:40:51;;;;;;;6.45;3.55;;;;;;;15.15;60.02;99622.97;4393923;32;20124;-87
2023/06/15 00:43:18;;;;;;;5.65;3.10;;;;;;;15.03;60.02;99634.06;4408659;32;20415;-88
2023/06/15 00:45:44;;;;;;;6.70;3.10;;;;;;;15.17;60.02;99631.59;4393750;32;20106;-88
2023/06/15 00:48:10;;;;;;;6.87;3.40;;;;;;;15.18;60.02;99630.66;4393586;32;20109;-88
2023/06/15 00:50:37;;;;;;;7.25;2.97;;;;;;;14.97;60.01;99631.78;4378675;32;20533;-87
2023/06/15 00:53:05;;;;;;;7.25;3.20;;;;;;;15.09;60.02;99633.75;4393970;32;20446;-88
2023/06/15 00:55:32;;;;;;;5.82;2.78;;;;;;;14.95;60.01;99633.63;4391600;32;20150;-88
2023/06/15 00:57:57;;;;;;;4.97;2.78;;;;;;;14.91;60.01;99629.50;4393527;32;20101;-88
2023/06/15 01:00:23;;;;;;;6.45;3.12;;;;;;;14.72;60.00;99633.03;4402897;32;20139;-89
2023/06/15 01:02:50;;;;;;;6.65;3.92;;;;;;;14.78;60.01;99634.50;4393642;32;20162;-89
2023/06/15 01:05:20;;;;;;;4.53;3.30;;;;;;;15.22;60.02;99624.31;4392211;32;20089;-89
2023/06/15 01:07:46;;;;;;;4.97;2.83;;;;;;;15.23;60.02;99625.16;4394165;32;20419;-88
2023/06/15 01:10:12;;;;;;;4.95;3.00;;;;;;;15.28;60.03;99628.37;4388967;32;20106;-88
2023/06/15 01:12:40;;;;;;;4.60;3.30;;;;;;;15.12;60.02;99627.50;4397238;32;20109;-87
2023/06/15 01:15:09;;;;;;;4.97;3.50;;;;;;;14.95;60.01;99621.38;4405464;32;20082;-89
2023/06/15 01:17:34;;;;;;;5.45;3.53;;;;;;;14.78;60.00;99623.16;4393470;32;20164;-89
2023/06/15 01:20:06;;;;;;;5.07;3.45;;;;;;;14.78;60.01;99624.00;4392463;32;20397;-88
2023/06/15 01:22:49;;;;;;;4.53;3.03;;;;;;;14.92;60.00;99621.53;4384843;32;20094;-89
2023/06/15 01:25:26;;;;;;;5.97;3.62;;;;;;;14.66;59.99;99622.00;4405742;32;20115;-89
2023/06/15 01:27:59;;;;;;;5.40;3.33;;;;;;;14.55;59.98;99614.69;4388495;32;20164;-88
2023/06/15 01:30:26;;;;;;;4.82;3.28;;;;;;;14.47;59.98;99614.25;4380973;32;20161;-88
2023/06/15 01:32:52;;;;;;;8.38;3.97;;;;;;;14.77;60.00;99611.84;4379400;32;20120;-88
2023/06/15 01:35:18;;;;;;;5.68;3.55;;;;;;;14.95;60.01;99602.19;4405301;32;20094;-88
2023/06/15 01:37:43;;;;;;;7.68;3.70;;;;;;;15.14;60.02;99610.78;4402743;32;20136;-87
2023/06/15 01:40:09;;;;;;;5.43;3.17;;;;;;;15.04;60.02;99607.78;4396220;32;20113;-87
2023/06/15 01:42:34;;;;;;;7.07;3.60;;;;;;;14.97;60.01;99614.28;4407141;32;20185;-88
2023/06/15 01:45:00;;;;;;;10.80;3.65;;;;;;;14.91;60.01;99617.22;4393682;32;20124;-87
2023/06/15 01:47:26;;;;;;;7.43;3.72;;;;;;;14.67;60.00;99610.63;4403351;32;20156;-88
2023/06/15 01:49:52;;;;;;;6.18;3.58;;;;;;;14.45;59.98;99620.50;4406086;32;20560;-88
2023/06/15 01:52:17;;;;;;;5.62;3.42;;;;;;;14.63;60.00;99609.91;4403328;32;20140;-87
2023/06/15 01:54:43;;;;;;;7.50;3.97;;;;;;;14.52;59.98;99614.84;4393654;32;20105;-89
2023/06/15 01:57:08;;;;;;;7.40;3.55;;;;;;;14.58;59.99;99611.91;4390163;32;20165;-88
2023/06/15 01:59:33;;;;;;;9.73;3.25;;;;;;;14.59;59.99;99611.00;4406081;32;20462;-89
2023/06/15 02:01:59;;;;;;;4.53;3.37;;;;;;;14.62;59.98;99607.38;4404293;32;20429;-89
2023/06/15 02:04:24;;;;;;;4.80;2.95;;;;;;;14.36;59.97;99612.13;4408525;32;20579;-89
2023/06/15 02:06:51;;;;;;;5.85;3.62;;;;;;;14.54;59.98;99613.00;4394120;32;20102;-89
2023/06/15 02:09:16;;;;;;;5.12;3.25;;;;;;;14.66;59.99;99615.00;4393642;32;20179;-89
2023/06/15 02:11:44;;;;;;;6.57;3.33;;;;;;;14.05;59.96;99617.16;4381845;32;20090;-89
2023/06/15 02:14:09;;;;;;;7.22;3.33;;;;;;;13.94;59.96;99620.28;4394024;32;20744;-89
2023/06/15 02:16:35;;;;;;;5.10;3.30;;;;;;;14.16;59.96;99612.25;4381842;32;20530;-90
2023/06/15 02:19:03;;;;;;;6.40;4.20;;;;;;;14.04;59.96;99616.31;4381797;32;20364;-90
2023/06/15 02:21:29;;;;;;;8.05;3.75;;;;;;;14.34;59.98;99623.59;4394576;32;20162;-89
2023/06/15 02:23:54;;;;;;;8.05;3.65;;;;;;;14.20;59.97;99620.81;4381980;32;20113;-88
2023/06/15 02:26:20;;;;;;;4.60;3.12;;;;;;;14.40;59.98;99621.50;4393984;32;20154;-88
2023/06/15 02:28:45;;;;;;;7.00;3.62;;;;;;;14.32;59.97;99615.81;4381623;32;20209;-88
2023/06/15 02:31:10;;;;;;;4.47;3.00;;;;;;;14.35;59.98;99626.13;4381672;32;20082;-89
2023/06/15 02:33:37;;;;;;;6.40;3.42;;;;;;;14.14;59.97;99616.72;4381105;32;25192;-88
2023/06/15 02:36:03;;;;;;;7.22;3.90;;;;;;;14.00;59.95;99620.00;4408016;32;20456;-89
2023/06/15 02:38:28;;;;;;;9.32;4.15;;;;;;;14.01;59.95;99616.47;4394266;32;20120;-88
2023/06/15 02:40:54;;;;;;;4.75;3.80;;;;;;;14.20;59.97;99621.66;4393972;32;20443;-88
2023/06/15 02:43:19;;;;;;;5.87;3.40;;;;;;;14.11;59.97;99615.09;4381591;32;20138;-88
2023/06/15 02:45:45;;;;;;;8.13;3.70;;;;;;;14.08;59.96;99615.25;4395111;32;20130;-88
2023/06/15 02:48:10;;;;;;;7.93;3.72;;;;;;;14.12;59.96;99613.31;4395990;32;20102;-88
2023/06/15 02:50:35;;;;;;;5.12;3.80;;;;;;;14.17;59.96;99620.94;4409730;32;20455;-88
2023/06/15 02:53:01;;;;;;;4.82;3.42;;;;;;;14.17;59.96;99610.47;4396173;32;20464;-87
2023/06/15 02:55:26;;;;;;;8.35;3.70;;;;;;;14.22;59.97;99614.59;4395785;32;20443;-88
2023/06/15 02:57:52;;;;;;;6.40;3.75;;;;;;;14.45;59.97;99615.25;4383452;32;20398;-88
2023/06/15 03:00:18;;;;;;;5.53;3.62;;;;;;;14.32;59.97;99612.34;4383523;32;20524;-89
2023/06/15 03:02:44;;;;;;;7.95;3.50;;;;;;;14.27;59.97;99612.59;4383534;32;20079;-88
2023/06/15 03:05:10;;;;;;;5.18;3.67;;;;;;;14.25;59.96;99609.19;4383480;32;20120;-88
2023/06/15 03:07:36;;;;;;;8.20;4.05;;;;;;;14.37;59.97;99610.34;4408566;32;20124;-88
2023/06/15 03:10:01;;;;;;;6.18;4.00;;;;;;;14.61;59.98;99614.38;4383343;32;20082;-88
2023/06/15 03:12:26;;;;;;;5.85;3.47;;;;;;;14.69;59.98;99614.88;4383480;32;20138;-89
2023/06/15 03:14:52;;;;;;;5.60;3.30;;;;;;;14.68;59.99;99610.56;4395196;32;26331;-89
2023/06/15 03:17:17;;;;;;;4.70;3.28;;;;;;;14.46;59.97;99609.94;4383291;32;20140;-89
2023/06/15 03:19:44;;;;;;;5.68;3.40;;;;;;;14.51;59.98;99607.94;4383190;32;20086;-89
2023/06/15 03:22:09;;;;;;;6.95;3.45;;;;;;;14.61;59.99;99616.16;4383523;32;20430;-89
2023/06/15 03:24:35;;;;;;;8.35;3.55;;;;;;;14.52;59.98;99617.47;4370684;32;20156;-88
2023/06/15 03:27:02;;;;;;;8.20;3.03;;;;;;;14.77;59.99;99622.31;4383191;32;20481;-88
2023/06/15 03:29:31;;;;;;;6.30;3.45;;;;;;;14.43;59.98;99620.53;4408396;32;20085;-87
2023/06/15 03:31:57;;;;;;;6.30;3.35;;;;;;;14.71;59.99;99620.87;4383077;32;20095;-88
2023/06/15 03:34:24;;;;;;;6.07;3.35;;;;;;;14.92;60.00;99620.69;4382931;32;20170;-88
2023/06/15 03:36:51;;;;;;;4.78;3.17;;;;;;;14.86;60.00;99628.84;4383269;32;20105;-87
2023/06/15 03:39:18;;;;;;;6.47;3.65;;;;;;;14.76;59.99;99620.63;4383207;32;20090;-87
2023/06/15 03:41:43;;;;;;;5.43;3.47;;;;;;;14.68;59.99;99628.88;4408226;32;20086;-88
2023/06/15 03:44:09;;;;;;;5.93;3.53;;;;;;;14.74;59.99;99628.56;4383008;32;20098;-87
2023/06/15 03:46:35;;;;;;;4.80;3.33;;;;;;;14.81;60.00;99633.50;4382781;32;20107;-87
2023/06/15 03:49:00;;;;;;;9.27;3.90;;;;;;;15.05;60.01;99626.97;4409270;32;20376;-87
2023/06/15 03:51:27;;;;;;;4.93;3.08;;;;;;;14.94;59.99;99631.94;4409302;32;20387;-87
2023/06/15 03:53:52;;;;;;;5.43;3.03;;;;;;;15.24;60.01;99626.87;4383034;32;20128;-85
2023/06/15 03:56:18;;;;;;;5.62;3.20;;;;;;;15.20;60.01;99633.19;4382408;32;20106;-87
2023/06/15 03:58:43;;;;;;;5.87;3.00;;;;;;;15.29;60.02;99635.31;4407653;32;24570;-87
2023/06/15 04:01:11;;;;;;;4.12;2.95;;;;;;;15.33;60.02;99629.84;4382673;32;20367;-89
2023/06/15 04:03:36;;;;;;;8.32;2.72;;;;;;;15.40;60.03;99632.16;4395695;32;20102;-88
2023/06/15 04:06:04;;;;;;;5.55;3.08;;;;;;;15.42;60.03;99633.75;4409233;32;20098;-89
2023/06/15 04:08:29;;;;;;;4.53;3.20;;;;;;;15.49;60.03;99635.13;4394274;32;20082;-90
2023/06/15 04:10:56;;;;;;;5.32;3.37;;;;;;;15.45;60.03;99635.37;4382637;32;20178;-89
2023/06/15 04:13:23;;;;;;;5.57;3.15;;;;;;;15.60;60.03;99637.19;4383204;32;20475;-88
2023/06/15 04:15:48;;;;;;;5.28;3.40;;;;;;;15.90;60.05;99637.28;4370416;32;20118;-89
2023/06/15 04:18:13;;;;;;;6.32;4.00;;;;;;;15.95;60.06;99630.00;4367880;32;20148;-88
2023/06/15 04:20:40;;;;;;;8.85;3.95;;;;;;;15.95;60.06;99640.50;4394672;32;20078;-89
2023/06/15 04:23:05;;;;;;;7.15;3.65;;;;;;;16.15;60.07;99631.50;4383041;32;20099;-86
2023/06/15 04:25:31;;;;;;;8.27;3.35;;;;;;;16.13;60.07;99643.87;4395396;32;20110;-89
2023/06/15 04:27:56;;;;;;;5.82;3.90;;;;;;;16.48;60.09;99633.97;4382732;32;20086;-88
2023/06/15 04:30:24;;;;;;;8.07;4.05;;;;;;;16.45;60.08;99637.63;4369917;32;20498;-89
2023/06/15 04:32:59;;;;;;;6.75;3.83;;;;;;;16.93;60.11;99634.84;4383201;32;20514;-89
2023/06/15 04:35:28;;;;;;;7.85;3.87;;;;;;;16.65;60.10;99641.72;4408033;32;20121;-89
2023/06/15 04:37:56;;;;;;;6.62;3.97;;;;;;;16.59;60.09;99639.47;4395787;32;20116;-89
2023/06/15 04:40:22;;;;;;;6.65;3.45;;;;;;;16.84;60.10;99637.09;4383278;32;20137;-89
2023/06/15 04:42:48;;;;;;;8.52;3.58;;;;;;;17.11;60.12;99644.28;4382559;32;20493;-88
2023/06/15 04:45:13;;;;;;;8.65;3.78;;;;;;;17.16;60.13;99635.16;4382687;32;20157;-88
2023/06/15 04:47:39;;;;;;;6.50;3.67;;;;;;;17.10;60.12;99643.44;4409070;32;20082;-88
2023/06/15 04:50:05;;;;;;;6.18;3.85;;;;;;;17.22;60.13;99636.56;4395185;32;20108;-88
2023/06/15 04:52:31;;;;;;;7.80;4.00;;;;;;;17.49;60.14;99642.75;4407811;32;20129;-88
2023/06/15 04:54:56;;;;;;;4.95;3.75;;;;;;;17.76;60.15;99642.03;4395173;32;20091;-87
2023/06/15 04:57:22;;;;;;;8.63;4.15;;;;;;;18.06;60.17;99642.69;4409012;32;20129;-88
2023/06/15 04:59:47;;;;;;;4.57;3.25;;;;;;;18.15;60.17;99649.16;4395006;32;20082;-88
2023/06/15 05:02:12;;;;;;;5.70;3.55;;;;;;;18.17;60.17;99643.78;4382063;32;20098;-87
2023/06/15 05:04:38;;;;;;;6.28;3.55;;;;;;;18.32;60.19;99640.16;4394820;32;20102;-88
2023/06/15 05:07:03;;;;;;;9.80;4.30;;;;;;;18.29;60.18;99648.25;4394931;32;20082;-88
2023/06/15 05:09:29;;;;;;;5.50;3.92;;;;;;;18.49;60.19;99639.91;4393985;32;20108;-88
2023/06/15 05:11:55;;;;;;;8.18;3.35;;;;;;;18.52;60.19;99638.84;4394869;32;20110;-88
2023/06/15 05:14:21;;;;;;;6.95;3.90;;;;;;;18.68;60.20;99639.53;4382492;32;20098;-88
2023/06/15 05:16:46;;;;;;;7.32;3.45;;;;;;;18.79;60.21;99644.09;4407313;32;20102;-88
2023/06/15 05:19:12;;;;;;;7.05;3.90;;;;;;;18.94;60.22;99646.53;4408653;32;20394;-88
2023/06/15 05:21:37;;;;;;;7.65;4.25;;;;;;;18.93;60.22;99651.94;4394709;32;20150;-88
2023/06/15 05:24:03;;;;;;;5.93;3.28;;;;;;;19.07;60.22;99654.44;4408703;32;20128;-88
2023/06/15 05:26:28;;;;;;;6.45;3.72;;;;;;;19.17;60.23;99660.81;4394595;32;20105;-88
2023/06/15 05:28:54;;;;;;;8.70;3.62;;;;;;;19.40;60.25;99667.13;4408584;32;20165;-88
2023/06/15 05:31:19;;;;;;;6.10;3.60;;;;;;;19.62;60.25;99661.19;4369760;32;20122;-88
2023/06/15 05:33:45;;;;;;;8.63;3.80;;;;;;;19.60;60.25;99666.59;4394754;32;20142;-87
2023/06/15 05:36:10;;;;;;;9.15;3.40;;;;;;;19.76;60.25;99671.63;4408247;32;20087;-86
2023/06/15 05:38:35;;;;;;;7.20;3.87;;;;;;;19.90;60.27;99668.88;4408129;32;20129;-87
2023/06/15 05:41:01;;;;;;;7.40;3.62;;;;;;;19.91;60.27;99664.44;4394096;32;23450;-87
2023/06/15 05:43:26;;;;;;;5.65;3.40;;;;;;;20.20;60.28;99668.44;4381959;32;20110;-87
2023/06/15 05:45:52;;;;;;;4.85;2.97;;;;;;;20.15;60.28;99672.38;4394510;32;20114;-88
2023/06/15 05:48:19;;;;;;;5.45;3.08;;;;;;;20.27;60.28;99670.63;4382161;32;20136;-87
2023/06/15 05:50:44;;;;;;;6.45;3.25;;;;;;;20.21;60.28;99675.41;4394829;32;20129;-87
2023/06/15 05:53:10;;;;;;;6.97;3.17;;;;;;;20.32;60.29;99679.91;4381918;32;20109;-87
2023/06/15 05:55:36;;;;;;;4.35;3.35;;;;;;;20.40;60.30;99679.34;4394882;32;20348;-87
2023/06/15 05:58:02;;;;;;;10.45;3.75;;;;;;;20.70;60.31;99674.47;4394291;32;20142;-87
2023/06/15 06:00:30;;;;;;;4.80;3.40;;;;;;;20.73;60.31;99676.03;4394359;32;20102;-87
2023/06/15 06:02:56;;;;;;;6.95;3.37;;;;;;;20.72;60.31;99674.34;4382653;32;20124;-87
2023/06/15 06:05:23;;;;;;;10.60;3.97;;;;;;;20.93;60.32;99674.53;4407031;32;20078;-87
2023/06/15 06:07:48;;;;;;;5.25;3.72;;;;;;;20.90;60.32;99677.41;4408442;32;20077;-87
2023/06/15 06:10:17;;;;;;;6.55;3.83;;;;;;;20.96;60.33;99672.50;4394466;32;20478;-87
2023/06/15 06:12:42;;;;;;;5.45;3.60;;;;;;;21.05;60.33;99671.78;4394517;32;20102;-87
2023/06/15 06:15:08;;;;;;;5.72;4.05;;;;;;;21.09;60.33;99680.34;4394089;32;20138;-87
2023/06/15 06:17:33;;;;;;;4.65;3.28;;;;;;;21.24;60.33;99675.69;4408301;32;20122;-87
2023/06/15 06:19:58;;;;;;;4.62;3.83;;;;;;;21.23;60.33;99682.75;4409562;32;20130;-87
2023/06/15 06:22:24;;;;;;;9.77;3.72;;;;;;;21.40;60.35;99677.03;4413418;32;20138;-87
2023/06/15 06:24:49;;;;;;;9.82;3.78;;;;;;;21.56;60.36;99671.41;4399330;32;20105;-87
2023/06/15 06:27:15;;;;;;;6.60;3.80;;;;;;;21.59;60.36;99676.44;4399435;32;20625;-87
2023/06/15 06:29:41;;;;;;;8.48;3.83;;;;;;;21.96;60.38;99676.16;4399149;32;20130;-87
2023/06/15 06:32:07;;;;;;;7.62;3.70;;;;;;;21.88;60.37;99684.72;4413246;32;20414;-87
2023/06/15 06:34:35;;;;;;;5.57;3.62;;;;;;;22.06;60.38;99677.16;4399319;32;20089;-87
2023/06/15 06:37:01;;;;;;;7.22;3.97;;;;;;;22.22;60.39;99674.94;4386797;32;20102;-87
2023/06/15 06:39:26;;;;;;;5.20;3.78;;;;;;;22.34;60.40;99676.59;4399296;32;20379;-88
2023/06/15 06:41:52;;;;;;;6.25;4.00;;;;;;;22.54;60.40;99672.31;4399103;32;20488;-87
2023/06/15 06:44:19;;;;;;;3.97;3.30;;;;;;;22.74;60.42;99675.13;4412606;32;20132;-87
2023/06/15 06:46:45;;;;;;;7.65;3.53;;;;;;;22.92;60.43;99677.06;4386616;32;20106;-87
2023/06/15 06:49:10;;;;;;;7.00;3.55;;;;;;;23.27;60.45;99670.59;4386646;32;20152;-87
2023/06/15 06:51:36;;;;;;;9.10;3.85;;;;;;;23.73;60.46;99672.78;4386543;32;20102;-87
2023/06/15 06:54:02;;;;;;;9.55;3.25;;;;;;;23.99;60.48;99674.97;4386351;32;20473;-87
2023/06/15 06:56:27;;;;;;;7.15;3.50;;;;;;;23.94;60.48;99680.69;4412804;32;20069;-87
2023/06/15 06:58:53;;;;;;;7.03;3.62;;;;;;;24.09;60.48;99673.16;4412870;32;20117;-87
2023/06/15 07:01:18;;;;;;;6.20;4.03;;;;;;;24.45;60.51;99672.53;4398776;32;20102;-87
2023/06/15 07:03:44;;;;;;;8.98;3.53;;;;;;;24.66;60.51;99669.75;4398760;32;20090;-88
2023/06/15 07:06:09;;;;;;;5.78;3.40;;;;;;;24.63;60.52;99670.03;4412561;32;20427;-88
2023/06/15 07:08:34;;;;;;;6.87;3.75;;;;;;;24.70;60.52;99668.47;4412015;32;25803;-87
2023/06/15 07:11:00;;;;;;;5.55;3.35;;;;;;;24.89;60.52;99659.66;4412518;32;20140;-87
2023/06/15 07:13:25;;;;;;;5.40;3.10;;;;;;;25.11;60.54;99658.50;4386078;32;20105;-87
2023/06/15 07:15:54;;;;;;;7.82;3.70;;;;;;;25.06;60.53;99666.91;4412603;32;20148;-86
2023/06/15 07:18:20;;;;;;;7.40;2.85;;;;;;;25.03;60.54;99663.69;4386210;32;20248;-85
2023/06/15 07:20:45;;;;;;;7.70;3.70;;;;;;;25.17;60.55;99663.25;4412326;32;20443;-86
2023/06/15 07:23:10;;;;;;;7.62;3.28;;;;;;;25.23;60.55;99657.34;4412027;32;20086;-85
2023/06/15 07:25:36;;;;;;;10.50;3.08;;;;;;;25.14;60.54;99657.37;4398097;32;20158;-86
2023/06/15 07:28:02;;;;;;;10.93;3.50;;;;;;;25.22;60.54;99661.00;4385103;32;31172;-86
2023/06/15 07:30:29;;;;;;;7.18;3.75;;;;;;;25.44;60.55;99661.62;4398255;32;20375;-86
2023/06/15 07:32:54;;;;;;;6.87;2.85;;;;;;;25.52;60.56;99661.72;4395124;32;20086;-85
2023/06/15 07:35:19;;;;;;;7.43;3.78;;;;;;;25.32;60.55;99659.16;4369826;32;29970;-85
2023/06/15 07:37:45;;;;;;;5.45;3.37;;;;;;;25.22;60.54;99661.00;4395687;32;20225;-86
2023/06/15 07:40:11;;;;;;;6.20;3.47;;;;;;;25.21;60.55;99654.00;4395557;32;20090;-85
2023/06/15 07:42:36;;;;;;;5.57;3.12;;;;;;;25.35;60.56;99650.03;4395473;32;20078;-86
2023/06/15 07:45:02;;;;;;;4.50;2.87;;;;;;;25.35;60.56;99644.69;4408329;32;20128;-86
2023/06/15 07:47:27;;;;;;;8.20;3.22;;;;;;;25.44;60.56;99649.13;4395639;32;20111;-86
2023/06/15 07:49:53;;;;;;;6.03;2.85;;;;;;;25.61;60.56;99652.88;4395468;32;20411;-85
2023/06/15 07:52:18;;;;;;;6.00;3.33;;;;;;;25.62;60.58;99649.22;4394945;32;26436;-84
2023/06/15 07:54:44;;;;;;;3.97;2.60;;;;;;;25.42;60.56;99650.28;4408665;32;32027;-86
2023/06/15 07:57:09;;;;;;;6.70;3.58;;;;;;;25.44;60.56;99653.62;4408046;32;20440;-86
2023/06/15 07:59:34;;;;;;;4.87;3.17;;;;;;;25.58;60.57;99646.00;4395553;32;20133;-85
2023/06/15 08:02:02;;;;;;;4.15;2.62;;;;;;;25.59;60.57;99641.50;4383060;32;20102;-86
2023/06/15 08:04:28;;;;;;;5.37;2.90;;;;;;;25.53;60.58;99647.41;4395414;32;20148;-85
2023/06/15 08:06:53;;;;;;;11.75;3.90;;;;;;;25.60;60.56;99649.38;4395489;32;20159;-85
2023/06/15 08:09:19;;;;;;;3.78;2.90;;;;;;;25.40;60.56;99642.44;4409293;32;20149;-86
2023/06/15 08:11:45;;;;;;;7.07;3.28;;;;;;;25.44;60.56;99646.47;4395430;32;20094;-86
2023/06/15 08:14:10;;;;;;;6.00;3.20;;;;;;;25.60;60.57;99641.38;4370329;32;20380;-86
2023/06/15 08:16:36;;;;;;;4.90;2.75;;;;;;;25.89;60.59;99643.06;4395371;32;20166;-86
2023/06/15 08:19:01;;;;;;;7.65;3.22;;;;;;;25.65;60.58;99640.91;4370017;32;20102;-85
2023/06/15 08:21:26;;;;;;;5.82;3.45;;;;;;;26.08;60.59;99639.44;4369865;32;24832;-85
2023/06/15 08:23:52;;;;;;;5.68;3.35;;;;;;;26.14;60.60;99641.50;4382226;32;27651;-86
2023/06/15 08:26:17;;;;;;;5.35;3.28;;;;;;;26.16;60.59;99644.84;4395222;32;20399;-86
2023/06/15 08:28:43;;;;;;;6.82;2.97;;;;;;;26.46;60.61;99630.31;4395529;32;20498;-86
2023/06/15 08:31:08;;;;;;;6.72;3.25;;;;;;;26.48;60.62;99634.50;4408719;32;20975;-85
2023/06/15 08:33:34;;;;;;;5.03;3.08;;;;;;;26.41;60.62;99636.13;4382300;32;25557;-86
2023/06/15 08:35:59;;;;;;;7.07;3.40;;;;;;;26.41;60.62;99644.13;4409186;32;20240;-85
2023/06/15 08:38:25;;;;;;;5.82;3.60;;;;;;;26.35;60.61;99636.75;4382715;32;20102;-86
2023/06/15 08:40:50;;;;;;;5.60;3.33;;;;;;;26.35;60.61;99633.25;4408577;32;20463;-85
2023/06/15 08:43:18;;;;;;;3.92;3.25;;;;;;;26.45;60.62;99633.97;4408951;32;20152;-84
2023/06/15 08:45:44;;;;;;;6.60;3.33;;;;;;;26.72;60.64;99636.53;4370291;32;20134;-84
2023/06/15 08:48:13;;;;;;;5.75;2.75;;;;;;;26.95;60.64;99636.03;4382697;32;20457;-84
2023/06/15 08:50:39;;;;;;;4.00;2.90;;;;;;;27.32;60.66;99633.16;4408704;32;20130;-84
2023/06/15 08:53:05;;;;;;;3.62;3.05;;;;;;;27.41;60.67;99635.69;4394927;32;20082;-86
2023/06/15 08:55:32;;;;;;;6.82;3.08;;;;;;;27.47;60.67;99631.56;4394742;32;20752;-86
2023/06/15 08:57:59;;;;;;;4.45;2.92;;;;;;;27.59;60.67;99626.75;4394762;32;20128;-86
2023/06/15 09:00:25;;;;;;;6.62;2.97;;;;;;;27.90;60.69;99619.84;4394791;32;20149;-86
2023/06/15 09:02:52;;;;;;;4.40;2.85;;;;;;;28.06;60.70;99611.87;4394696;32;20102;-86
2023/06/15 09:05:18;;;;;;;5.15;2.83;;;;;;;28.14;60.71;99611.03;4408855;32;20085;-87
2023/06/15 09:07:43;;;;;;;4.40;2.78;;;;;;;28.29;60.72;99613.94;4394524;32;22028;-86
2023/06/15 09:10:19;;;;;;;3.72;2.92;;;;;;;28.30;60.72;99623.66;4394093;32;24749;-86
2023/06/15 09:12:47;;;;;;;4.05;2.83;;;;;;;28.42;60.71;99614.31;4382325;32;20169;-87
2023/06/15 09:15:27;;;;;;;5.65;2.62;;;;;;;28.51;60.72;99605.25;4394255;32;20553;-87
2023/06/15 09:17:55;;;;;;;4.87;2.42;;;;;;;28.75;60.74;99617.81;4382445;32;20528;-87
2023/06/15 09:20:23;;;;;;;3.45;2.55;;;;;;;28.80;60.74;99618.13;4394595;32;20128;-86
2023/06/15 09:22:48;;;;;;;6.75;2.65;;;;;;;29.06;60.75;99614.44;4408338;32;20086;-86
2023/06/15 09:25:20;;;;;;;4.20;2.78;;;;;;;28.85;60.75;99612.25;4394581;32;20512;-87
2023/06/15 09:28:00;;;;;;;4.05;2.37;;;;;;;28.77;60.73;99609.59;4394929;32;20897;-86
2023/06/15 09:30:34;;;;;;;3.80;2.53;;;;;;;28.59;60.72;99617.81;4382317;32;20073;-85
2023/06/15 09:33:10;;;;;;;5.82;2.40;;;;;;;28.59;60.73;99613.28;4407832;32;20119;-87
2023/06/15 09:35:36;;;;;;;5.03;2.70;;;;;;;28.81;60.74;99609.09;4406734;32;20138;-86
2023/06/15 09:38:01;;;;;;;5.90;3.25;;;;;;;28.77;60.73;99604.25;4393850;32;34114;-86
2023/06/15 09:40:28;;;;;;;3.87;2.70;;;;;;;28.93;60.76;99598.91;4393689;32;34879;-85
2023/06/15 09:42:56;;;;;;;3.47;2.75;;;;;;;29.15;60.75;99597.34;4394793;32;20143;-85
2023/06/15 09:45:21;;;;;;;4.50;2.55;;;;;;;29.15;60.76;99600.03;4394505;32;20124;-86
2023/06/15 09:47:55;;;;;;;4.72;2.65;;;;;;;29.13;60.76;99604.72;4381971;32;20391;-83
2023/06/15 09:50:21;;;;;;;4.37;2.80;;;;;;;28.81;60.74;99602.88;4381945;32;20157;-86
2023/06/15 09:52:48;;;;;;;3.97;2.70;;;;;;;28.78;60.74;99593.34;4382130;32;20383;-84
2023/06/15 09:55:14;;;;;;;3.80;2.90;;;;;;;28.90;60.75;99593.88;4381176;32;20124;-86
2023/06/15 09:57:40;;;;;;;3.28;2.50;;;;;;;28.87;60.75;99589.72;4408240;32;20098;-85
2023/06/15 10:00:08;;;;;;;8.00;2.60;;;;;;;28.96;60.75;99588.66;4381543;32;20082;-85
2023/06/15 10:02:34;;;;;;;3.00;2.50;;;;;;;28.78;60.75;99590.69;4393660;32;20078;-85
2023/06/15 10:05:01;;;;;;;4.65;2.47;;;;;;;28.83;60.74;99587.47;4381646;32;20102;-86
2023/06/15 10:07:27;;;;;;;4.80;2.50;;;;;;;28.84;60.75;99586.47;4394432;32;20114;-85
2023/06/15 10:09:52;;;;;;;3.28;2.17;;;;;;;29.07;60.76;99581.25;4381214;32;21589;-85
2023/06/15 10:12:22;;;;;;;5.70;2.45;;;;;;;29.14;60.76;99593.00;4394465;32;20137;-85
2023/06/15 10:14:49;;;;;;;4.00;2.47;;;;;;;29.07;60.76;99590.13;4394491;32;20107;-85
2023/06/15 10:17:16;;;;;;;5.18;2.42;;;;;;;29.24;60.76;99590.94;4381972;32;20132;-84
2023/06/15 10:19:43;;;;;;;4.55;2.37;;;;;;;29.06;60.75;99584.94;4394353;32;20162;-84
2023/06/15 10:22:14;;;;;;;5.82;2.70;;;;;;;29.11;60.76;99586.12;4408015;32;20442;-84
2023/06/15 10:24:40;;;;;;;3.05;2.55;;;;;;;29.01;60.76;99585.47;4407851;32;20440;-85
2023/06/15 10:27:05;;;;;;;4.55;2.28;;;;;;;29.18;60.76;99586.28;4381598;32;20110;-85
2023/06/15 10:30:03;;;;;;;3.65;2.55;;;;;;;29.34;60.77;99572.81;4394001;32;20411;-84
2023/06/15 10:32:36;;;;;;;4.03;2.25;;;;;;;29.49;60.78;99583.66;4381417;32;20085;-85
2023/06/15 10:35:13;;;;;;;6.07;2.67;;;;;;;29.73;60.79;99577.34;4407946;32;20117;-85
2023/06/15 10:37:51;;;;;;;5.15;2.75;;;;;;;30.04;60.82;99574.66;4407815;32;20178;-84
2023/06/15 10:40:21;;;;;;;2.30;1.92;;;;;;;29.90;60.81;99581.59;4369337;32;20172;-84
2023/06/15 10:42:47;;;;;;;5.37;2.17;;;;;;;29.68;60.79;99577.03;4394528;32;20462;-85
2023/06/15 10:45:27;;;;;;;3.75;2.30;;;;;;;29.63;60.79;99574.87;4394046;32;20098;-85
2023/06/15 10:47:52;;;;;;;3.70;2.22;;;;;;;29.36;60.78;99578.84;4407869;32;20196;-85
2023/06/15 10:50:17;;;;;;;7.43;2.55;;;;;;;29.55;60.79;99581.13;4393614;32;20145;-85
2023/06/15 10:52:43;;;;;;;3.20;2.45;;;;;;;29.89;60.81;99569.22;4380622;32;30363;-85
2023/06/15 10:55:09;;;;;;;2.40;2.17;;;;;;;30.17;60.81;99562.31;4393201;32;20949;-84
2023/06/15 10:57:35;;;;;;;4.80;2.53;;;;;;;29.86;60.80;99566.87;4381307;32;20106;-84
2023/06/15 11:00:03;;;;;;;3.05;2.45;;;;;;;29.64;60.80;99563.16;4393658;32;20112;-84
2023/06/15 11:02:29;;;;;;;4.00;2.65;;;;;;;29.55;60.79;99561.50;4393993;32;20400;-83
2023/06/15 11:05:01;;;;;;;3.28;2.42;;;;;;;29.48;60.79;99566.75;4393607;32;20173;-85
2023/06/15 11:07:27;;;;;;;2.95;2.28;;;;;;;29.53;60.79;99566.22;4394877;32;20483;-85
2023/06/15 11:10:15;;;;;;;5.43;2.65;;;;;;;29.51;60.79;99562.88;4383507;32;20086;-84
2023/06/15 11:12:42;;;;;;;3.72;2.85;;;;;;;29.46;60.78;99567.94;4384863;32;20603;-85
2023/06/15 11:15:09;;;;;;;3.37;2.10;;;;;;;29.11;60.77;99566.53;4395963;32;20458;-84
2023/06/15 11:17:57;;;;;;;4.62;2.50;;;;;;;29.05;60.76;99570.72;4383322;32;20786;-85
2023/06/15 11:20:54;;;;;;;4.40;2.85;;;;;;;29.13;60.77;99575.25;4395764;32;20094;-85
2023/06/15 11:23:23;;;;;;;3.47;2.40;;;;;;;29.15;60.76;99565.19;4408833;32;20094;-85
2023/06/15 11:25:50;;;;;;;5.85;2.33;;;;;;;29.19;60.78;99571.84;4383850;32;20455;-85
2023/06/15 11:28:24;;;;;;;5.32;2.30;;;;;;;29.38;60.79;99571.47;4409556;32;20090;-85
2023/06/15 11:30:50;;;;;;;2.92;2.15;;;;;;;29.82;60.80;99563.72;4395591;32;20154;-84
2023/06/15 11:33:24;;;;;;;4.97;2.12;;;;;;;29.83;60.81;99575.28;4382872;32;20094;-82